Sunday, September 25, 2016, 3:03 AM EDT

KLNS, Lancaster Airport

Location: Lititz, PA, United States Lat: 40.117
Local Time: 3:03 AM EDT ( 7:03 GMT) Lon: -76.3
Time Zone: US/Eastern Elev: 403 ft

Show me the last for .
Show Decoded

2016-09-25 02:53 METAR KLNS 250653Z AUTO 00000KT 10SM CLR 12/07 A3019 RMK AO2 SLP222 T01220072 $
                 =
2016-09-25 01:53 METAR KLNS 250553Z AUTO 00000KT 10SM CLR 12/08 A3018 RMK AO2 SLP220 T01220078
                 10167 20117 52006 $ =
2016-09-25 00:53 METAR KLNS 250453Z AUTO 12003KT 10SM CLR 13/08 A3018 RMK AO2 SLP217 T01330083
                 402330122 $ =
2016-09-24 23:53 METAR KLNS 250353Z AUTO 07003KT 10SM CLR 14/09 A3017 RMK AO2 SLP216 T01390094 $
                 =
2016-09-24 22:53 METAR KLNS 250253Z 03007KT 10SM CLR 14/09 A3017 RMK AO2 SLP214 T01390094 51014 $
                 =
2016-09-24 21:53 METAR KLNS 250153Z 02006KT 10SM CLR 14/09 A3016 RMK AO2 SLP212 T01390094 $ =
2016-09-24 20:53 METAR KLNS 250053Z 02005KT 10SM CLR 16/09 A3015 RMK AO2 SLP207 T01560094 $ =
2016-09-24 19:53 METAR KLNS 242353Z 01006KT 10SM CLR 17/09 A3012 RMK AO2 SLP199 T01670094 10233
                 20167 53014 $ =
2016-09-24 18:53 METAR KLNS 242253Z 02005KT 10SM CLR 19/09 A3011 RMK AO2 SLP193 T01940089 $ =
2016-09-24 17:53 METAR KLNS 242153Z 36009KT 10SM CLR 22/07 A3010 RMK AO2 SLP189 T02220072 $ =
2016-09-24 16:53 METAR KLNS 242053Z 33005KT 10SM CLR 23/11 A3008 RMK AO2 SLP184 T02330106 56014 $
                 =
2016-09-24 15:53 METAR KLNS 241953Z VRB03KT 10SM CLR 22/13 A3009 RMK AO2 SLP187 T02170133 $ =
2016-09-24 15:01 METAR KLNS 241901Z 04004KT 10SM SCT028 OVC033 20/15 A3011 RMK AO2 T02000150 $ =
2016-09-24 14:53 METAR KLNS 241853Z 05008KT 10SM BKN028 OVC033 20/14 A3011 RMK AO2 SLP193
                 T02000144 $ =
2016-09-24 14:34 METAR KLNS 241834Z 04005KT 10SM BKN030 OVC034 20/15 A3011 RMK AO2 T02000150 $ =
2016-09-24 13:53 METAR KLNS 241753Z 33005KT 10SM OVC026 20/14 A3012 RMK AO2 SLP198 60000
                 T02000144 10200 20167 58006 $ =
2016-09-24 12:53 METAR KLNS 241653Z 03003KT 10SM BKN018 OVC025 19/14 A3014 RMK AO2 SLP204
                 T01890144 $ =
2016-09-24 11:53 METAR KLNS 241553Z 04005KT 10SM BKN018 OVC025 18/15 A3014 RMK AO2 SLP205
                 T01830150 =
2016-09-24 10:53 METAR KLNS 241453Z 05007KT 10SM OVC015 17/16 A3014 RMK AO2 RAB16E35 SLP205 P0000
                 60000 T01720156 51008 =
2016-09-24 10:49 METAR KLNS 241449Z 04006KT 10SM OVC015 17/16 A3014 RMK AO2 RAB16E35 P0000 =
2016-09-24 10:01 METAR KLNS 241401Z 04009KT 10SM BKN014 OVC022 17/15 A3014 RMK AO2 T01720150 =
2016-09-24 09:53 METAR KLNS 241353Z 05011KT 10SM BKN016 OVC022 18/15 A3014 RMK AO2 RAE1257 SLP205
                 P0000 T01780150 =
2016-09-24 08:53 METAR KLNS 241253Z 05012KT 10SM -RA OVC017 18/15 A3012 RMK AO2 RAB17E29B46
                 SLP197 P0000 T01780150 =
2016-09-24 07:53 METAR KLNS 241153Z 03011KT 10SM OVC016 19/16 A3010 RMK AO2 SLP189 T01890161
                 10211 20189 53022 =
2016-09-24 06:53 METAR KLNS 241053Z 03007KT 10SM OVC022 19/17 A3006 RMK AO2 SLP176 T01940167 =
2016-09-24 06:21 METAR KLNS 241021Z 02009KT 10SM BKN020 19/17 A3005 RMK AO2 T01940172 =
2016-09-24 05:53 METAR KLNS 240953Z 02008KT 10SM FEW095 19/17 A3004 RMK AO2 SLP169 T01940172 =
2016-09-24 04:53 METAR KLNS 240853Z AUTO 03009KT 10SM SCT120 21/18 A3003 RMK AO2 SLP166 T02060183
                 53011 =
2016-09-24 03:53 METAR KLNS 240753Z AUTO 13003KT 8SM FEW120 20/19 A3001 RMK AO2 SLP160 T02000189
                 =

Support USWX by starting your Amazon purchase here.